createdAt,value
2022-10-17T00:00:53.669Z,5.30
2022-10-17T00:03:21.926Z,5.90
2022-10-17T00:05:50.267Z,5.78
2022-10-17T00:08:19.728Z,5.60
2022-10-17T00:10:56.350Z,5.75
2022-10-17T00:13:25.882Z,4.63
2022-10-17T00:15:54.191Z,3.88
2022-10-17T00:18:22.230Z,3.58
2022-10-17T00:20:50.134Z,4.20
2022-10-17T00:23:18.363Z,3.90
2022-10-17T00:25:46.524Z,2.90
2022-10-17T00:28:15.826Z,2.70
2022-10-17T00:30:45.896Z,2.47
2022-10-17T00:33:13.873Z,2.55
2022-10-17T00:35:41.986Z,2.65
2022-10-17T00:38:09.879Z,2.60
2022-10-17T00:40:37.841Z,2.67
2022-10-17T00:43:05.907Z,1.98
2022-10-17T00:45:33.959Z,2.50
2022-10-17T00:48:08.657Z,2.72
2022-10-17T00:50:39.700Z,2.43
2022-10-17T00:53:09.791Z,2.60
2022-10-17T00:55:45.695Z,2.30
2022-10-17T00:58:13.546Z,2.05
2022-10-17T01:00:44.665Z,2.08
2022-10-17T01:03:14.314Z,1.83
2022-10-17T01:05:42.978Z,2.00
2022-10-17T01:08:11.803Z,2.10
2022-10-17T01:10:50.620Z,2.00
2022-10-17T01:13:27.086Z,2.00
2022-10-17T01:16:05.106Z,2.00
2022-10-17T01:18:47.771Z,2.40
2022-10-17T01:21:30.991Z,2.72
2022-10-17T01:24:35.042Z,2.00
2022-10-17T01:27:23.190Z,2.08
2022-10-17T01:30:06.622Z,2.30
2022-10-17T01:32:40.363Z,2.20
2022-10-17T01:35:13.410Z,2.40
2022-10-17T01:37:46.914Z,2.17
2022-10-17T01:40:22.200Z,3.47
2022-10-17T01:42:55.625Z,3.43
2022-10-17T01:45:31.244Z,3.15
2022-10-17T01:48:06.742Z,3.67
2022-10-17T01:50:40.509Z,3.08
2022-10-17T01:53:13.253Z,3.30
2022-10-17T01:55:44.556Z,2.60
2022-10-17T01:58:16.457Z,2.45
2022-10-17T02:00:46.598Z,2.42
2022-10-17T02:03:19.092Z,2.70
2022-10-17T02:05:47.717Z,3.00
2022-10-17T02:08:15.640Z,2.83
2022-10-17T02:10:48.877Z,2.70
2022-10-17T02:13:23.359Z,2.92
2022-10-17T02:16:13.737Z,4.13
2022-10-17T02:19:02.995Z,3.20
2022-10-17T02:21:41.423Z,4.20
2022-10-17T02:24:19.651Z,3.58
2022-10-17T02:26:55.297Z,4.10
2022-10-17T02:29:29.563Z,4.15
2022-10-17T02:34:40.173Z,3.77
2022-10-17T02:37:10.795Z,4.28
2022-10-17T02:39:41.203Z,5.03
2022-10-17T02:42:12.139Z,4.35
2022-10-17T02:44:41.855Z,3.83
2022-10-17T02:47:17.423Z,3.57
2022-10-17T02:49:51.641Z,3.67
2022-10-17T02:52:28.152Z,3.35
2022-10-17T02:55:00.766Z,3.08
2022-10-17T02:57:32.259Z,2.90
2022-10-17T03:00:03.896Z,2.57
2022-10-17T03:02:40.305Z,2.05
2022-10-17T03:05:11.196Z,2.30
2022-10-17T03:07:39.287Z,2.20
2022-10-17T03:10:09.301Z,1.98
2022-10-17T03:12:37.355Z,1.90
2022-10-17T03:15:06.270Z,1.50
2022-10-17T03:17:34.312Z,2.00
2022-10-17T03:20:02.543Z,1.90
2022-10-17T03:22:32.205Z,1.83
2022-10-17T03:25:00.721Z,1.77
2022-10-17T03:27:29.029Z,2.22
2022-10-17T03:29:57.448Z,2.50
2022-10-17T03:32:25.595Z,2.22
2022-10-17T03:34:53.974Z,2.40
2022-10-17T03:37:23.153Z,3.63
2022-10-17T03:39:52.494Z,3.42
2022-10-17T03:42:20.217Z,3.42
2022-10-17T03:44:47.872Z,3.95
2022-10-17T03:47:15.987Z,3.65
2022-10-17T03:49:44.068Z,3.37
2022-10-17T03:52:13.413Z,3.83
2022-10-17T03:54:41.576Z,3.55
2022-10-17T03:57:11.279Z,2.72
2022-10-17T03:59:39.258Z,2.90
2022-10-17T04:02:07.281Z,2.90
2022-10-17T04:04:35.063Z,3.13
2022-10-17T04:07:03.257Z,3.65
2022-10-17T04:09:31.153Z,3.10
2022-10-17T04:11:59.073Z,3.53
2022-10-17T04:14:28.241Z,3.00
2022-10-17T04:16:56.281Z,3.05
2022-10-17T04:19:26.019Z,2.72
2022-10-17T04:21:53.776Z,3.63
2022-10-17T04:24:21.946Z,2.50
2022-10-17T04:26:51.306Z,2.67
2022-10-17T04:29:19.614Z,3.35
2022-10-17T04:31:49.823Z,3.60
2022-10-17T04:34:17.805Z,3.35
2022-10-17T04:36:47.266Z,3.50
2022-10-17T04:39:15.159Z,4.10
2022-10-17T04:41:43.528Z,5.38
2022-10-17T04:44:12.121Z,5.65
2022-10-17T04:46:40.035Z,4.72
2022-10-17T04:49:09.892Z,5.65
2022-10-17T04:51:37.516Z,4.43
2022-10-17T04:54:05.686Z,4.03
2022-10-17T04:56:33.799Z,4.10
2022-10-17T04:59:01.826Z,3.40
2022-10-17T05:01:29.941Z,3.90
2022-10-17T05:03:58.368Z,3.67
2022-10-17T05:06:28.885Z,3.60
2022-10-17T05:08:57.665Z,3.95
2022-10-17T05:11:27.830Z,4.05
2022-10-17T05:13:57.737Z,4.00
2022-10-17T05:16:26.945Z,5.20
2022-10-17T05:18:56.757Z,4.47
2022-10-17T05:21:26.571Z,4.40
2022-10-17T05:23:55.884Z,4.07
2022-10-17T05:26:24.465Z,3.45
2022-10-17T05:28:54.873Z,3.50
2022-10-17T05:31:22.791Z,3.10
2022-10-17T05:33:51.339Z,2.85
2022-10-17T05:36:20.221Z,2.58
2022-10-17T05:38:53.464Z,3.03
2022-10-17T05:41:25.002Z,3.40
2022-10-17T05:43:53.213Z,4.45
2022-10-17T05:46:24.836Z,3.78
2022-10-17T05:48:52.931Z,4.50
2022-10-17T05:51:20.790Z,4.18
2022-10-17T05:53:48.871Z,5.63
2022-10-17T05:56:17.007Z,8.05
2022-10-17T05:58:53.273Z,8.43
2022-10-17T06:01:23.014Z,8.32
2022-10-17T06:03:51.517Z,7.50
2022-10-17T06:06:20.536Z,7.20
2022-10-17T06:08:48.571Z,7.35
2022-10-17T06:11:16.634Z,8.35
2022-10-17T06:13:44.398Z,9.02
2022-10-17T06:16:17.238Z,6.90
2022-10-17T06:18:45.281Z,6.27
2022-10-17T06:21:16.200Z,5.45
2022-10-17T06:23:44.327Z,3.70
2022-10-17T06:26:12.232Z,2.80
2022-10-17T06:28:40.932Z,2.78
2022-10-17T06:31:09.983Z,2.10
2022-10-17T06:33:39.517Z,2.10
2022-10-17T06:36:09.646Z,4.55
2022-10-17T06:38:37.769Z,5.32
2022-10-17T06:41:08.541Z,4.72
2022-10-17T06:43:36.839Z,4.90
2022-10-17T06:46:05.102Z,5.78
2022-10-17T06:48:33.069Z,5.15
2022-10-17T06:51:02.972Z,6.22
2022-10-17T06:53:31.776Z,5.18
2022-10-17T06:56:03.027Z,5.43
2022-10-17T06:58:32.084Z,6.43
2022-10-17T07:01:01.384Z,4.80
2022-10-17T07:03:30.167Z,6.13
2022-10-17T07:05:58.444Z,6.63
2022-10-17T07:08:28.505Z,6.70
2022-10-17T07:10:57.075Z,7.55
2022-10-17T07:13:25.609Z,7.43
2022-10-17T07:18:26.500Z,4.13
2022-10-17T07:20:55.220Z,3.80
2022-10-17T07:23:23.237Z,3.75
2022-10-17T07:25:52.638Z,3.60
2022-10-17T07:28:21.248Z,3.88
2022-10-17T07:30:52.058Z,4.30
2022-10-17T07:33:22.616Z,5.13
2022-10-17T07:35:52.714Z,4.50
2022-10-17T07:38:20.856Z,4.85
2022-10-17T07:40:56.431Z,4.93
2022-10-17T07:43:24.979Z,5.65
2022-10-17T07:45:53.337Z,4.50
2022-10-17T07:48:21.511Z,3.85
2022-10-17T07:50:49.579Z,4.15
2022-10-17T07:53:17.752Z,3.75
2022-10-17T07:55:46.463Z,3.78
2022-10-17T07:58:17.565Z,2.80
2022-10-17T08:00:48.294Z,3.30
2022-10-17T08:03:16.630Z,3.17
2022-10-17T08:05:44.421Z,3.10
2022-10-17T08:08:12.366Z,3.15
2022-10-17T08:10:40.423Z,3.03
2022-10-17T08:13:08.467Z,3.00
2022-10-17T08:15:38.689Z,3.25
2022-10-17T08:18:06.552Z,3.45
2022-10-17T08:20:34.550Z,3.50
2022-10-17T08:23:02.614Z,4.43
2022-10-17T08:25:30.527Z,5.05
2022-10-17T08:27:59.599Z,4.88
2022-10-17T08:30:30.545Z,4.90
2022-10-17T08:32:59.965Z,6.15
2022-10-17T08:35:27.616Z,6.03
2022-10-17T08:37:56.322Z,6.88
2022-10-17T08:40:27.580Z,12.25
2022-10-17T08:43:28.070Z,12.07
2022-10-17T08:46:03.229Z,11.30
2022-10-17T08:48:35.314Z,9.47
2022-10-17T08:51:08.734Z,11.25
2022-10-17T08:53:40.332Z,8.35
2022-10-17T08:56:20.011Z,7.25
2022-10-17T08:58:52.773Z,8.13
2022-10-17T09:01:35.677Z,6.80
2022-10-17T09:04:30.028Z,5.40
2022-10-17T09:07:04.690Z,6.22
2022-10-17T09:09:40.874Z,5.65
2022-10-17T09:12:18.910Z,5.50
2022-10-17T09:15:13.000Z,5.13
2022-10-17T09:17:52.783Z,4.72
2022-10-17T09:20:25.383Z,5.22
2022-10-17T09:22:58.605Z,5.40
2022-10-17T09:25:27.726Z,6.05
2022-10-17T09:28:03.463Z,5.40
2022-10-17T09:30:45.223Z,5.55
2022-10-17T09:33:28.306Z,6.90
2022-10-17T09:36:10.072Z,5.72
2022-10-17T09:38:41.731Z,6.10
2022-10-17T09:41:43.461Z,6.27
2022-10-17T09:44:18.753Z,6.97
2022-10-17T09:46:58.447Z,7.30
2022-10-17T09:49:32.809Z,7.00
2022-10-17T09:52:02.301Z,6.85
2022-10-17T09:54:41.202Z,6.37
2022-10-17T09:57:10.555Z,6.03
2022-10-17T09:59:39.934Z,5.97
2022-10-17T10:02:22.195Z,6.43
2022-10-17T10:05:09.278Z,6.85
2022-10-17T10:07:40.042Z,6.53
2022-10-17T10:10:10.117Z,5.45
2022-10-17T10:12:39.420Z,6.10
2022-10-17T10:15:33.371Z,5.65
2022-10-17T10:18:01.355Z,5.85
2022-10-17T10:20:32.589Z,6.60
2022-10-17T10:23:17.378Z,5.60
2022-10-17T10:25:54.979Z,6.03
2022-10-17T10:28:26.561Z,6.78
2022-10-17T10:30:56.510Z,6.22
2022-10-17T10:33:28.710Z,5.60
2022-10-17T10:35:58.822Z,5.60
2022-10-17T10:38:28.150Z,6.53
2022-10-17T10:40:56.759Z,5.50
2022-10-17T10:43:30.855Z,5.95
2022-10-17T10:45:59.059Z,5.90
2022-10-17T10:48:28.787Z,5.72
2022-10-17T10:50:59.607Z,6.03
2022-10-17T10:53:38.083Z,5.60
2022-10-17T10:56:10.898Z,6.03
2022-10-17T10:58:55.014Z,5.40
2022-10-17T11:01:30.526Z,5.50
2022-10-17T11:04:20.451Z,6.43
2022-10-17T11:06:49.957Z,5.50
2022-10-17T11:09:33.682Z,5.40
2022-10-17T11:12:06.366Z,5.37
2022-10-17T11:14:41.694Z,5.45
2022-10-17T11:17:18.749Z,5.50
2022-10-17T11:19:53.660Z,5.32
2022-10-17T11:22:29.221Z,5.40
2022-10-17T11:25:01.644Z,4.90
2022-10-17T11:27:31.127Z,5.70
2022-10-17T11:29:59.706Z,5.47
2022-10-17T11:32:31.651Z,5.35
2022-10-17T11:35:04.314Z,5.97
2022-10-17T11:37:37.994Z,5.67
2022-10-17T11:40:19.278Z,5.68
2022-10-17T11:42:54.434Z,5.90
2022-10-17T11:45:23.486Z,5.30
2022-10-17T11:47:54.395Z,5.97
2022-10-17T11:53:18.310Z,5.95
2022-10-17T11:55:48.211Z,5.70
2022-10-17T11:58:30.967Z,5.30
2022-10-17T12:01:07.193Z,5.30
2022-10-17T12:03:46.022Z,5.70
2022-10-17T12:06:22.927Z,5.22
2022-10-17T12:09:07.107Z,5.18
2022-10-17T12:11:45.687Z,5.07
2022-10-17T12:14:38.994Z,4.80
2022-10-17T12:17:21.922Z,4.87
2022-10-17T12:19:49.934Z,4.60
2022-10-17T12:22:25.977Z,5.10
2022-10-17T12:25:00.466Z,4.57
2022-10-17T12:27:39.878Z,4.97
2022-10-17T12:30:17.844Z,5.00
2022-10-17T12:33:05.551Z,4.60
2022-10-17T12:35:36.126Z,4.45
2022-10-17T12:38:16.365Z,4.60
2022-10-17T12:41:06.598Z,5.00
2022-10-17T12:46:57.110Z,4.65
2022-10-17T12:49:51.096Z,4.38
2022-10-17T12:52:24.736Z,4.53
2022-10-17T12:55:07.478Z,4.80
2022-10-17T12:57:45.304Z,4.70
2022-10-17T13:00:21.925Z,4.38
2022-10-17T13:02:53.079Z,5.00
2022-10-17T13:05:34.072Z,4.30
2022-10-17T13:08:04.691Z,4.72
2022-10-17T13:10:38.089Z,4.27
2022-10-17T13:13:13.092Z,3.95
2022-10-17T13:15:47.231Z,4.00
2022-10-17T13:18:21.170Z,3.72
2022-10-17T13:21:00.744Z,3.53
2022-10-17T13:23:32.878Z,3.30
2022-10-17T13:26:06.355Z,3.42
2022-10-17T13:28:39.206Z,3.67
2022-10-17T13:31:08.946Z,3.90
2022-10-17T13:33:41.134Z,3.90
2022-10-17T13:36:16.358Z,3.43
2022-10-17T13:38:44.503Z,3.25
2022-10-17T13:41:35.899Z,3.40
2022-10-17T13:44:05.816Z,3.63
2022-10-17T13:46:39.327Z,3.35
2022-10-17T13:49:13.719Z,3.30
2022-10-17T13:51:45.579Z,3.58
2022-10-17T13:54:31.841Z,3.50
2022-10-17T13:57:00.349Z,3.38
2022-10-17T13:59:33.258Z,3.55
2022-10-17T14:02:03.228Z,3.03
2022-10-17T14:04:44.704Z,3.15
2022-10-17T14:07:26.055Z,3.58
2022-10-17T14:09:55.136Z,3.58
2022-10-17T14:12:23.449Z,2.92
2022-10-17T14:15:10.760Z,3.10
2022-10-17T14:17:41.129Z,3.42
2022-10-17T14:23:21.614Z,3.53
2022-10-17T14:25:47.356Z,3.10
2022-10-17T14:28:18.268Z,3.77
2022-10-17T14:31:03.216Z,3.25
2022-10-17T14:33:34.589Z,3.33
2022-10-17T14:36:06.353Z,3.10
2022-10-17T14:38:35.877Z,3.22
2022-10-17T14:41:40.808Z,3.20
2022-10-17T14:44:00.854Z,3.47
2022-10-17T14:46:29.647Z,2.92
2022-10-17T14:49:05.836Z,3.22
2022-10-17T14:51:44.751Z,3.40
2022-10-17T14:54:25.993Z,2.83
2022-10-17T14:56:55.671Z,2.92
2022-10-17T14:59:52.053Z,3.40
2022-10-17T15:02:12.986Z,3.60
2022-10-17T15:04:41.994Z,3.30
2022-10-17T15:07:14.184Z,3.03
2022-10-17T15:09:42.177Z,3.50
2022-10-17T15:12:16.463Z,3.40
2022-10-17T15:14:44.334Z,3.28
2022-10-17T15:17:15.330Z,3.58
2022-10-17T15:19:44.636Z,3.43
2022-10-17T15:22:12.611Z,3.65
2022-10-17T15:24:40.393Z,3.30
2022-10-17T15:27:14.735Z,3.50
2022-10-17T15:29:42.859Z,3.70
2022-10-17T15:32:10.525Z,3.67
2022-10-17T15:34:38.354Z,3.78
2022-10-17T15:37:14.748Z,3.30
2022-10-17T15:39:42.774Z,3.63
2022-10-17T15:42:12.539Z,3.75
2022-10-17T15:44:44.042Z,3.53
2022-10-17T15:47:23.333Z,3.25
2022-10-17T15:49:51.211Z,3.65
2022-10-17T15:52:20.557Z,4.70
2022-10-17T15:54:48.226Z,3.72
2022-10-17T15:57:19.829Z,4.10
2022-10-17T15:59:48.797Z,3.90
2022-10-17T16:02:18.290Z,4.53
2022-10-17T16:04:49.608Z,4.53
2022-10-17T16:07:20.607Z,4.47
2022-10-17T16:09:48.275Z,4.77
2022-10-17T16:12:18.630Z,4.00
2022-10-17T16:14:46.492Z,3.78
2022-10-17T16:17:15.884Z,4.13
2022-10-17T16:19:44.280Z,4.57
2022-10-17T16:22:21.886Z,5.63
2022-10-17T16:24:49.949Z,5.22
2022-10-17T16:27:17.592Z,5.72
2022-10-17T16:29:45.410Z,5.43
2022-10-17T16:32:13.015Z,5.38
2022-10-17T16:34:41.576Z,5.40
2022-10-17T16:37:09.891Z,5.57
2022-10-17T16:39:39.070Z,4.90
2022-10-17T16:42:06.893Z,5.00
2022-10-17T16:44:34.542Z,5.13
2022-10-17T16:47:02.315Z,5.27
2022-10-17T16:49:29.930Z,6.35
2022-10-17T16:51:57.667Z,6.18
2022-10-17T16:54:25.435Z,6.13
2022-10-17T16:56:54.512Z,5.60
2022-10-17T16:59:22.247Z,6.17
2022-10-17T17:01:50.025Z,5.40
2022-10-17T17:04:17.955Z,5.68
2022-10-17T17:09:18.264Z,5.18
2022-10-17T17:11:45.856Z,5.03
2022-10-17T17:14:15.293Z,5.57
2022-10-17T17:16:43.446Z,6.07
2022-10-17T17:19:13.719Z,5.65
2022-10-17T17:21:43.100Z,5.60
2022-10-17T17:24:10.833Z,5.93
2022-10-17T17:26:39.058Z,5.68
2022-10-17T17:29:07.063Z,5.07
2022-10-17T17:31:39.099Z,5.88
2022-10-17T17:34:07.480Z,6.82
2022-10-17T17:36:37.665Z,6.30
2022-10-17T17:39:07.784Z,6.03
2022-10-17T17:41:36.704Z,6.30
2022-10-17T17:44:05.437Z,7.40
2022-10-17T17:46:33.821Z,6.68
2022-10-17T17:49:02.949Z,6.67
2022-10-17T17:51:30.782Z,6.30
2022-10-17T17:53:58.715Z,6.32
2022-10-17T17:56:28.387Z,6.93
2022-10-17T17:58:57.385Z,7.18
2022-10-17T18:01:29.409Z,6.37
2022-10-17T18:04:00.037Z,7.25
2022-10-17T18:06:29.680Z,6.57
2022-10-17T18:08:59.705Z,6.50
2022-10-17T18:11:28.347Z,7.82
2022-10-17T18:13:56.846Z,7.70
2022-10-17T18:16:25.124Z,8.27
2022-10-17T18:18:52.952Z,9.05
2022-10-17T18:21:20.763Z,9.85
2022-10-17T18:23:51.656Z,14.52
2022-10-17T18:26:22.403Z,12.03
2022-10-17T18:28:50.943Z,12.52
2022-10-17T18:31:24.578Z,10.52
2022-10-17T18:33:53.073Z,9.93
2022-10-17T18:36:21.364Z,9.75
2022-10-17T18:38:50.937Z,9.93
2022-10-17T18:41:20.165Z,10.15
2022-10-17T18:43:49.290Z,10.52
2022-10-17T18:46:20.582Z,10.20
2022-10-17T18:48:49.993Z,10.65
2022-10-17T18:51:20.400Z,12.73
2022-10-17T18:53:51.179Z,14.05
2022-10-17T18:56:19.659Z,14.07
2022-10-17T18:58:47.502Z,12.98
2022-10-17T19:01:17.545Z,12.43
2022-10-17T19:03:49.103Z,12.53
2022-10-17T19:06:19.216Z,11.48
2022-10-17T19:08:47.961Z,12.48
2022-10-17T19:11:19.339Z,12.43
2022-10-17T19:13:48.038Z,12.27
2022-10-17T19:16:17.505Z,12.03
2022-10-17T19:18:50.137Z,14.43
2022-10-17T19:21:21.754Z,10.75
2022-10-17T19:23:51.488Z,10.13
2022-10-17T19:26:21.455Z,9.65
2022-10-17T19:28:52.341Z,10.47
2022-10-17T19:31:26.273Z,10.07
2022-10-17T19:33:56.572Z,9.15
2022-10-17T19:36:30.504Z,8.98
2022-10-17T19:39:05.101Z,8.75
2022-10-17T19:41:35.325Z,8.90
2022-10-17T19:44:03.469Z,8.43
2022-10-17T19:46:33.830Z,8.35
2022-10-17T19:49:02.575Z,10.23
2022-10-17T19:51:30.710Z,10.10
2022-10-17T19:54:01.010Z,10.37
2022-10-17T19:56:30.423Z,9.43
2022-10-17T19:59:02.926Z,8.95
2022-10-17T20:01:34.127Z,9.65
2022-10-17T20:04:02.116Z,9.40
2022-10-17T20:06:29.945Z,8.67
2022-10-17T20:08:57.931Z,9.73
2022-10-17T20:11:28.316Z,9.43
2022-10-17T20:14:00.117Z,9.02
2022-10-17T20:16:30.413Z,7.95
2022-10-17T20:19:03.053Z,8.17
2022-10-17T20:21:32.358Z,7.78
2022-10-17T20:24:01.223Z,7.90
2022-10-17T20:26:38.215Z,8.30
2022-10-17T20:29:16.108Z,8.20
2022-10-17T20:31:45.552Z,8.10
2022-10-17T20:34:15.699Z,8.30
2022-10-17T20:36:44.602Z,7.55
2022-10-17T20:39:13.779Z,8.32
2022-10-17T20:41:41.661Z,8.23
2022-10-17T20:44:11.856Z,7.97
2022-10-17T20:46:48.461Z,7.65
2022-10-17T20:49:25.842Z,7.57
2022-10-17T20:51:53.401Z,7.78
2022-10-17T20:54:22.693Z,7.07
2022-10-17T20:56:50.501Z,7.17
2022-10-17T20:59:21.237Z,8.18
2022-10-17T21:01:49.249Z,7.25
2022-10-17T21:07:04.609Z,6.10
2022-10-17T21:09:32.402Z,6.97
2022-10-17T21:14:36.511Z,7.30
2022-10-17T21:17:05.525Z,7.18
2022-10-17T21:19:33.412Z,6.60
2022-10-17T21:22:01.418Z,7.73
2022-10-17T21:24:29.199Z,6.43
2022-10-17T21:26:57.550Z,7.53
2022-10-17T21:29:25.862Z,6.40
2022-10-17T21:31:54.796Z,6.35
2022-10-17T21:34:25.028Z,6.63
2022-10-17T21:36:53.640Z,6.78
2022-10-17T21:39:21.823Z,6.38
2022-10-17T21:41:49.521Z,7.05
2022-10-17T21:44:19.602Z,6.57
2022-10-17T21:46:48.292Z,6.13
2022-10-17T21:49:19.141Z,6.10
2022-10-17T21:51:48.187Z,6.30
2022-10-17T21:54:16.537Z,5.93
2022-10-17T21:56:44.506Z,6.00
2022-10-17T21:59:12.562Z,5.90
2022-10-17T22:01:41.729Z,5.63
2022-10-17T22:04:13.173Z,5.55
2022-10-17T22:06:43.895Z,5.70
2022-10-17T22:09:14.921Z,5.28
2022-10-17T22:11:43.202Z,5.13
2022-10-17T22:14:13.619Z,4.95
2022-10-17T22:16:41.551Z,5.32
2022-10-17T22:19:10.289Z,4.68
2022-10-17T22:21:37.974Z,4.90
2022-10-17T22:24:09.806Z,5.53
2022-10-17T22:26:39.088Z,5.03
2022-10-17T22:29:08.124Z,5.35
2022-10-17T22:31:36.446Z,5.45
2022-10-17T22:34:05.375Z,5.10
2022-10-17T22:36:33.389Z,5.00
2022-10-17T22:39:01.165Z,5.45
2022-10-17T22:41:30.148Z,5.22
2022-10-17T22:43:57.868Z,5.03
2022-10-17T22:46:25.767Z,4.97
2022-10-17T22:48:53.503Z,5.17
2022-10-17T22:51:21.294Z,4.60
2022-10-17T22:53:49.333Z,4.20
2022-10-17T22:56:21.504Z,4.75
2022-10-17T22:58:50.855Z,4.47
2022-10-17T23:01:20.959Z,5.17
2022-10-17T23:03:49.096Z,5.00
2022-10-17T23:06:16.690Z,5.22
2022-10-17T23:08:44.836Z,4.88
2022-10-17T23:11:12.778Z,5.00
2022-10-17T23:13:41.129Z,4.27
2022-10-17T23:16:10.331Z,4.45
2022-10-17T23:18:38.276Z,4.35
2022-10-17T23:21:06.711Z,4.20
2022-10-17T23:23:34.458Z,4.18
2022-10-17T23:26:06.046Z,4.30
2022-10-17T23:28:35.733Z,4.43
2022-10-17T23:31:13.127Z,4.30
2022-10-17T23:33:41.585Z,3.72
2022-10-17T23:36:10.606Z,4.07
2022-10-17T23:38:38.639Z,3.90
2022-10-17T23:41:06.668Z,3.63
2022-10-17T23:43:34.346Z,3.78
2022-10-17T23:46:02.598Z,3.80
2022-10-17T23:48:32.005Z,4.43
2022-10-17T23:50:59.730Z,4.10
2022-10-17T23:53:27.804Z,4.15
2022-10-17T23:55:55.883Z,4.43
2022-10-17T23:58:23.703Z,4.85
